Terminal Aerodrome Forecast
Issued by NWS

Home | Current Version | Previous Version | Graphics & Text | Print | Product List | Glossary On
Versions: 1 2 3 4 5 6 7 8 9 10 11 12 13 14 15 16 17 18
960
FTUS43 KICT 280353 AAA
TAFSLN
TAF AMD
KSLN 280353Z 2804/2824 VRB03KT P6SM FEW250
     FM280900 VRB03KT P6SM VCTS SCT080CB SCT250
     FM281100 01004KT P6SM SCT200
     FM282000 07005KT P6SM FEW050 FEW200=

USA.gov is the U.S. government's official web portal to all federal, state and local government web resources and services.